Time;durP1;ratioP1;P1;durP2;ratioP2;P2;SDS_P1;SDS_P2;PMS_P1;PMS_P2;Temp;Humidity;BMP_temperature;BMP_pressure;BME280_temperature;BME280_humidity;BME280_pressure;Samples;Min_cycle;Max_cycle;Signal;HPM_P1;HPM_P2
2022/03/14 00:00:38;;;;;;;14.02;8.02;;;6.40;35.70;;;4.99;35.32;96023.72;4949790;28;20046;-67
2022/03/14 00:03:04;;;;;;;12.98;8.20;;;6.50;35.90;;;4.92;34.92;96013.91;4959336;28;20404;-67
2022/03/14 00:05:31;;;;;;;10.82;8.50;;;6.40;35.70;;;4.91;35.09;96025.28;4971195;28;20034;-66
2022/03/14 00:07:59;;;;;;;12.98;8.10;;;6.40;35.70;;;4.87;35.39;96026.59;4987242;28;20097;-67
2022/03/14 00:10:24;;;;;;;12.25;8.02;;;6.30;35.60;;;4.84;35.21;96036.50;4983128;28;20130;-67
2022/03/14 00:12:58;;;;;;;13.30;8.68;;;6.20;35.80;;;4.78;35.03;96037.94;4983156;28;20110;-67
2022/03/14 00:15:28;;;;;;;11.05;7.78;;;6.20;35.50;;;4.75;35.32;96051.28;4956046;28;20070;-67
2022/03/14 00:17:54;;;;;;;13.15;7.50;;;6.20;35.80;;;4.72;35.51;96043.75;4970736;28;20038;-67
2022/03/14 00:20:21;;;;;;;14.13;8.30;;;6.20;36.00;;;4.71;35.39;96057.75;4956998;28;20050;-67
2022/03/14 00:22:47;;;;;;;12.85;8.52;;;6.20;36.40;;;4.64;35.69;96061.94;4971923;28;20609;-67
2022/03/14 00:25:13;;;;;;;15.35;9.60;;;6.10;37.50;;;4.55;36.01;96078.50;4965805;28;20027;-67
2022/03/14 00:27:39;;;;;;;12.38;8.48;;;6.00;37.80;;;4.47;36.53;96081.03;4954151;28;20051;-67
2022/03/14 00:30:10;;;;;;;15.65;9.05;;;5.90;38.10;;;4.40;37.53;96080.00;4953263;28;20035;-67
2022/03/14 00:32:36;;;;;;;14.57;8.40;;;5.80;38.50;;;4.35;36.71;96090.06;4962007;28;20437;-66
2022/03/14 00:35:03;;;;;;;14.88;8.32;;;5.70;38.70;;;4.26;36.93;96082.16;4953161;28;20470;-66
2022/03/14 00:37:29;;;;;;;13.13;8.45;;;5.60;38.60;;;4.17;36.70;96083.09;4979526;28;20085;-67
2022/03/14 00:39:55;;;;;;;12.93;7.95;;;5.60;39.00;;;4.12;37.25;96092.31;4969079;28;20839;-66
2022/03/14 00:42:21;;;;;;;14.82;9.05;;;5.60;39.30;;;4.09;36.88;96095.22;4960284;28;20046;-67
2022/03/14 00:44:48;;;;;;;14.02;8.40;;;5.60;38.80;;;4.05;37.34;96099.88;4969461;28;20035;-66
2022/03/14 00:47:15;;;;;;;12.48;8.35;;;5.50;39.40;;;3.98;37.38;96102.25;4979871;28;20050;-67
2022/03/14 00:49:41;;;;;;;14.65;8.73;;;5.40;39.70;;;3.93;37.60;96098.47;4968835;28;20387;-67
2022/03/14 00:52:06;;;;;;;16.50;9.25;;;5.40;39.40;;;3.90;37.45;96098.78;4978411;28;20031;-66
2022/03/14 00:54:32;;;;;;;14.82;8.75;;;5.40;39.60;;;3.83;37.59;96082.91;4954927;28;20042;-66
2022/03/14 00:56:58;;;;;;;12.43;8.40;;;5.30;39.90;;;3.80;37.79;96093.63;4967859;28;20031;-66
2022/03/14 00:59:24;;;;;;;13.27;8.23;;;5.30;40.30;;;3.78;38.09;96094.72;4930705;28;20081;-67
2022/03/14 01:01:51;;;;;;;12.82;8.73;;;5.30;40.70;;;3.75;38.15;96095.84;4959313;28;20106;-66
2022/03/14 01:04:17;;;;;;;14.73;7.97;;;5.30;40.70;;;3.74;38.05;96101.19;4951420;28;20035;-66
2022/03/14 01:06:42;;;;;;;13.90;8.52;;;5.30;39.40;;;3.72;37.95;96103.13;4956251;28;20041;-66
2022/03/14 01:09:11;;;;;;;14.05;8.38;;;5.30;39.50;;;3.68;38.35;96100.00;4970302;28;20360;-67
2022/03/14 01:11:40;;;;;;;14.30;8.48;;;5.30;39.70;;;3.69;38.68;96102.47;4951392;28;20118;-67
2022/03/14 01:14:06;;;;;;;11.82;8.38;;;5.30;39.00;;;3.73;37.88;96112.56;4984779;28;20456;-67
2022/03/14 01:16:31;;;;;;;14.30;7.95;;;5.30;38.60;;;3.75;37.85;96115.84;4963702;28;20049;-66
2022/03/14 01:18:57;;;;;;;13.23;8.30;;;5.30;38.50;;;3.74;37.42;96114.22;4986515;28;20039;-67
2022/03/14 01:21:24;;;;;;;12.73;8.18;;;5.30;38.60;;;3.73;37.06;96125.59;4939451;28;20047;-67
2022/03/14 01:23:50;;;;;;;15.43;8.55;;;5.20;38.00;;;3.70;37.59;96129.28;4955018;28;20066;-67
2022/03/14 01:26:17;;;;;;;13.85;8.60;;;5.30;38.40;;;3.70;37.60;96134.50;4959093;28;20035;-67
2022/03/14 01:28:43;;;;;;;14.10;9.23;;;5.30;38.60;;;3.70;37.78;96144.91;4940921;29;20023;-67
2022/03/14 01:31:08;;;;;;;12.95;8.45;;;5.30;38.50;;;3.66;37.72;96146.16;4952325;28;20058;-67
2022/03/14 01:33:34;;;;;;;17.80;8.40;;;5.10;39.30;;;3.60;37.99;96149.31;4956612;28;20460;-67
2022/03/14 01:36:00;;;;;;;12.63;8.60;;;5.10;39.30;;;3.55;38.34;96157.56;4984236;28;20459;-66
2022/03/14 01:38:26;;;;;;;15.32;8.23;;;5.00;40.00;;;3.51;38.13;96166.63;4953513;28;20462;-66
2022/03/14 01:40:52;;;;;;;14.93;8.82;;;4.90;40.60;;;3.44;38.45;96175.16;4961501;28;20027;-66
2022/03/14 01:43:18;;;;;;;12.40;8.25;;;5.00;40.70;;;3.38;38.49;96177.31;4936181;28;20043;-66
2022/03/14 01:45:46;;;;;;;14.90;8.70;;;4.80;40.70;;;3.32;38.79;96171.88;4960566;28;20530;-66
2022/03/14 01:48:12;;;;;;;14.85;9.15;;;4.80;40.90;;;3.25;39.19;96165.63;4945488;28;20039;-66
2022/03/14 01:50:38;;;;;;;18.08;9.95;;;4.70;41.00;;;3.24;39.39;96169.19;4971111;28;20416;-66
2022/03/14 01:53:04;;;;;;;16.85;8.65;;;4.80;41.60;;;3.22;38.89;96168.50;4931339;28;20114;-66
2022/03/14 01:55:29;;;;;;;14.10;9.05;;;4.70;41.70;;;3.18;39.34;96174.97;4969536;28;20062;-66
2022/03/14 01:57:56;;;;;;;12.88;8.25;;;4.70;42.00;;;3.12;39.98;96191.09;4957671;28;20534;-66
2022/03/14 02:00:22;;;;;;;15.77;9.68;;;4.60;41.90;;;3.08;40.01;96191.38;4952952;28;20504;-66
2022/03/14 02:02:48;;;;;;;15.45;9.48;;;4.60;42.60;;;3.09;39.87;96192.19;4941355;28;20031;-66
2022/03/14 02:05:15;;;;;;;14.57;8.68;;;4.60;42.00;;;3.08;39.83;96190.56;4951370;28;20030;-66
2022/03/14 02:07:40;;;;;;;17.10;10.30;;;4.60;42.50;;;3.06;39.86;96195.09;4927300;28;20035;-66
2022/03/14 02:10:08;;;;;;;17.10;9.90;;;4.60;42.20;;;3.01;39.76;96200.72;4959202;28;20261;-66
2022/03/14 02:12:33;;;;;;;19.17;10.73;;;4.60;42.40;;;2.97;40.39;96209.75;4969781;28;20511;-66
2022/03/14 02:14:59;;;;;;;18.52;12.20;;;4.60;42.70;;;2.94;40.55;96207.44;4938057;28;20101;-66
2022/03/14 02:17:25;;;;;;;17.25;11.40;;;4.60;42.70;;;2.93;40.25;96212.75;4967303;28;20383;-66
2022/03/14 02:19:52;;;;;;;17.92;11.50;;;4.60;43.00;;;2.88;40.54;96226.16;4963956;28;20460;-66
2022/03/14 02:22:18;;;;;;;16.83;11.02;;;4.40;43.00;;;2.88;40.47;96236.53;4953607;28;20031;-66
2022/03/14 02:24:45;;;;;;;19.02;11.63;;;4.40;42.40;;;2.89;40.48;96243.38;4964639;28;20031;-66
2022/03/14 02:27:13;;;;;;;19.20;11.52;;;4.50;42.50;;;2.91;40.90;96241.44;4941818;28;20499;-67
2022/03/14 02:29:39;;;;;;;18.27;11.38;;;4.60;42.60;;;2.94;40.46;96242.94;4951469;28;20035;-67
2022/03/14 02:32:06;;;;;;;20.67;12.57;;;4.60;43.00;;;2.94;40.83;96246.41;4964647;28;20511;-67
2022/03/14 02:34:32;;;;;;;18.10;11.00;;;4.60;43.30;;;2.96;41.33;96234.09;4950146;28;20054;-67
2022/03/14 02:36:58;;;;;;;15.65;9.65;;;4.70;43.40;;;2.96;41.25;96234.09;4964342;28;20414;-67
2022/03/14 02:39:24;;;;;;;19.08;11.23;;;4.70;43.10;;;3.01;40.89;96241.47;4960886;28;20140;-66
2022/03/14 02:41:50;;;;;;;15.00;9.40;;;4.70;42.80;;;3.04;41.10;96242.00;4964553;28;20066;-67
2022/03/14 02:44:15;;;;;;;16.08;10.32;;;4.70;41.90;;;3.11;40.39;96241.44;4968535;28;20505;-66
2022/03/14 02:46:42;;;;;;;16.08;9.85;;;4.80;41.80;;;3.17;40.79;96251.25;4969269;28;20039;-67
2022/03/14 02:49:09;;;;;;;14.85;9.23;;;4.90;42.00;;;3.23;41.10;96255.94;4981536;28;20624;-67
2022/03/14 02:51:38;;;;;;;16.40;9.88;;;5.00;42.10;;;3.31;41.21;96261.25;4952317;28;20097;-67
2022/03/14 02:54:05;;;;;;;12.88;9.23;;;5.10;42.50;;;3.37;41.35;96271.06;4952031;28;20507;-66
2022/03/14 02:56:32;;;;;;;16.35;9.70;;;5.20;42.40;;;3.46;41.57;96280.66;4951333;28;20069;-66
2022/03/14 02:58:58;;;;;;;15.35;9.65;;;5.30;42.40;;;3.51;41.46;96281.03;4965117;28;20499;-66
2022/03/14 03:01:24;;;;;;;15.60;9.25;;;5.20;41.90;;;3.53;41.29;96292.13;4966815;28;20129;-67
2022/03/14 03:03:50;;;;;;;20.20;9.85;;;5.20;41.90;;;3.57;41.22;96293.47;4965614;28;20031;-67
2022/03/14 03:06:19;;;;;;;21.08;10.50;;;5.20;42.10;;;3.59;41.29;96301.13;4979779;28;20047;-67
2022/03/14 03:08:48;;;;;;;15.63;10.38;;;5.30;42.10;;;3.66;41.57;96303.06;4937453;28;20042;-67
2022/03/14 03:11:14;;;;;;;14.80;10.23;;;5.40;42.00;;;3.67;41.30;96309.88;4970523;28;20065;-66
2022/03/14 03:13:43;;;;;;;15.35;9.55;;;5.30;42.20;;;3.68;41.47;96311.53;4969351;28;20435;-66
2022/03/14 03:16:09;;;;;;;15.57;9.85;;;5.30;42.40;;;3.71;41.65;96314.81;4968139;28;20063;-66
2022/03/14 03:18:35;;;;;;;15.50;10.25;;;5.40;42.70;;;3.72;41.73;96314.66;4984920;28;20544;-67
2022/03/14 03:21:02;;;;;;;18.20;10.70;;;5.30;43.00;;;3.69;42.00;96326.19;4968843;28;20105;-66
2022/03/14 03:23:28;;;;;;;16.60;10.20;;;5.30;43.50;;;3.71;41.93;96327.81;4949926;28;20038;-67
2022/03/14 03:25:54;;;;;;;16.15;10.45;;;5.30;43.80;;;3.69;42.58;96326.19;4952239;28;20031;-67
2022/03/14 03:28:20;;;;;;;16.23;10.73;;;5.20;44.50;;;3.71;42.60;96344.25;4970046;28;20038;-66
2022/03/14 03:30:46;;;;;;;17.23;10.18;;;5.30;45.00;;;3.72;42.63;96343.28;4975607;28;20034;-66
2022/03/14 03:33:12;;;;;;;15.15;10.15;;;5.30;45.60;;;3.76;43.05;96356.81;4968864;28;20545;-66
2022/03/14 03:35:37;;;;;;;16.67;10.88;;;5.40;46.00;;;3.80;43.64;96368.59;4951735;28;20503;-66
2022/03/14 03:38:03;;;;;;;15.65;10.23;;;5.40;46.00;;;3.83;43.59;96373.50;4971664;28;20038;-67
2022/03/14 03:40:29;;;;;;;16.60;10.52;;;5.40;46.40;;;3.84;43.86;96370.75;4951353;28;20058;-67
2022/03/14 03:42:55;;;;;;;15.75;10.02;;;5.40;47.00;;;3.90;44.24;96375.44;4956320;28;20391;-67
2022/03/14 03:45:21;;;;;;;16.30;10.13;;;5.50;47.10;;;3.98;44.04;96382.53;4970956;28;20066;-67
2022/03/14 03:47:46;;;;;;;23.48;11.18;;;5.70;47.40;;;4.07;44.07;96386.03;4949666;28;20079;-67
2022/03/14 03:50:12;;;;;;;16.70;10.13;;;5.70;47.60;;;4.12;44.87;96394.28;4971055;28;20449;-67
2022/03/14 03:52:38;;;;;;;15.25;10.30;;;5.80;47.80;;;4.17;44.93;96402.47;4934367;28;20039;-67
2022/03/14 03:55:05;;;;;;;19.45;11.20;;;5.80;47.90;;;4.19;45.37;96411.78;4968326;28;20446;-66
2022/03/14 03:57:31;;;;;;;18.58;11.23;;;5.80;48.10;;;4.24;45.10;96425.19;4960705;28;20086;-67
2022/03/14 03:59:57;;;;;;;21.33;13.43;;;5.90;48.00;;;4.27;45.54;96430.09;4961899;28;20070;-66
2022/03/14 04:02:23;;;;;;;17.50;10.65;;;6.00;48.30;;;4.32;45.74;96434.91;4968937;28;20035;-67
2022/03/14 04:04:49;;;;;;;22.27;14.10;;;6.00;48.80;;;4.37;46.01;96445.72;4976422;28;20031;-67
2022/03/14 04:07:19;;;;;;;19.17;12.25;;;6.10;49.40;;;4.40;46.75;96449.81;4978563;28;20054;-67
2022/03/14 04:09:55;;;;;;;17.40;10.80;;;6.00;49.80;;;4.43;48.29;96449.53;4932381;28;20503;-67
2022/03/14 04:12:24;;;;;;;17.63;9.73;;;6.10;50.10;;;4.47;47.04;96458.69;4941611;28;20038;-67
2022/03/14 04:14:51;;;;;;;17.17;10.82;;;6.10;50.70;;;4.49;47.49;96465.41;4969350;28;20102;-67
2022/03/14 04:17:18;;;;;;;19.42;10.23;;;6.20;51.40;;;4.53;47.48;96472.00;4963126;28;20518;-67
2022/03/14 04:19:44;;;;;;;17.20;10.75;;;6.20;52.00;;;4.60;48.53;96482.66;4953027;28;20090;-67
2022/03/14 04:22:10;;;;;;;19.13;11.50;;;6.30;52.60;;;4.66;48.90;96486.47;4952819;28;20035;-67
2022/03/14 04:24:37;;;;;;;26.70;15.43;;;6.40;53.40;;;4.72;49.41;96506.75;4937841;28;20034;-67
2022/03/14 04:27:04;;;;;;;22.10;13.82;;;6.50;53.80;;;4.79;50.23;96505.22;4954287;28;20101;-66
2022/03/14 04:29:29;;;;;;;27.48;18.45;;;6.60;54.00;;;4.85;50.09;96508.06;4935781;28;20046;-66
2022/03/14 04:31:55;;;;;;;27.05;17.33;;;6.70;54.10;;;4.91;50.67;96517.91;4959169;28;20063;-66
2022/03/14 04:34:21;;;;;;;24.25;14.50;;;6.70;54.50;;;4.98;51.16;96522.53;4959427;28;20058;-66
2022/03/14 04:36:50;;;;;;;24.00;13.98;;;6.80;54.70;;;5.04;51.20;96522.81;4968380;28;20034;-71
2022/03/14 04:39:17;;;;;;;21.08;13.05;;;6.90;54.10;;;5.09;51.71;96535.41;4955364;28;20538;-70
2022/03/14 04:41:43;;;;;;;20.73;13.07;;;7.00;54.40;;;5.14;51.50;96546.22;4975770;28;20047;-70
2022/03/14 04:44:09;;;;;;;20.60;13.07;;;7.00;55.00;;;5.19;52.22;96557.03;4952317;28;20032;-74
2022/03/14 04:46:35;;;;;;;19.55;12.68;;;7.10;54.70;;;5.26;52.23;96563.34;4967271;28;20395;-65
2022/03/14 04:49:01;;;;;;;24.85;14.75;;;7.10;54.90;;;5.31;52.29;96555.91;4985594;28;20031;-65
2022/03/14 04:51:27;;;;;;;20.48;13.57;;;7.10;55.00;;;5.35;52.25;96559.84;4977584;28;20191;-65
2022/03/14 04:53:53;;;;;;;20.95;14.32;;;7.20;55.00;;;5.40;52.53;96560.22;4970670;28;20522;-65
2022/03/14 04:56:19;;;;;;;20.77;13.77;;;7.20;54.80;;;5.42;52.90;96568.72;4970207;28;20110;-65
2022/03/14 04:58:45;;;;;;;24.02;14.50;;;7.20;54.90;;;5.45;52.98;96572.88;4969937;28;20058;-65
2022/03/14 05:01:11;;;;;;;22.02;13.90;;;7.30;55.00;;;5.47;52.84;96576.97;4969993;28;20070;-66
2022/03/14 05:03:37;;;;;;;20.77;13.77;;;7.30;54.90;;;5.50;53.69;96581.06;4954052;28;20045;-66
2022/03/14 05:06:03;;;;;;;24.13;14.93;;;7.30;55.30;;;5.53;53.35;96588.59;4975311;28;20113;-66
2022/03/14 05:08:28;;;;;;;24.63;14.55;;;7.40;55.10;;;5.54;53.87;96606.72;4964424;28;20039;-66
2022/03/14 05:10:54;;;;;;;23.60;14.88;;;7.40;55.30;;;5.56;53.75;96603.16;4970361;28;20109;-65
2022/03/14 05:13:21;;;;;;;23.50;16.38;;;7.30;55.60;;;5.58;54.30;96622.09;4981224;28;20035;-66
2022/03/14 05:15:46;;;;;;;22.70;16.50;;;7.40;55.80;;;5.59;54.66;96623.72;4939133;28;20125;-66
2022/03/14 05:18:12;;;;;;;22.48;15.15;;;7.40;55.90;;;5.59;54.91;96631.56;4959778;28;20381;-66
2022/03/14 05:20:39;;;;;;;23.23;15.98;;;7.40;56.30;;;5.59;54.49;96632.38;4963076;28;20035;-66
2022/03/14 05:23:05;;;;;;;23.30;15.65;;;7.40;55.80;;;5.60;55.05;96633.19;4938235;28;20137;-66
2022/03/14 05:25:30;;;;;;;24.25;16.05;;;7.40;55.60;;;5.60;54.75;96638.41;4960566;28;20028;-67
2022/03/14 05:27:57;;;;;;;24.48;15.52;;;7.40;55.70;;;5.60;55.07;96635.81;4945821;28;20039;-67
2022/03/14 05:30:23;;;;;;;23.05;16.10;;;7.50;55.70;;;5.62;55.35;96641.69;4960070;28;20035;-67
2022/03/14 05:32:49;;;;;;;25.15;16.83;;;7.50;55.80;;;5.60;55.33;96643.63;4953703;28;20455;-67
2022/03/14 05:35:18;;;;;;;22.73;16.65;;;7.50;55.80;;;5.64;55.58;96655.41;4949599;28;20050;-67
2022/03/14 05:37:44;;;;;;;32.67;17.90;;;7.60;56.30;;;5.68;55.75;96656.81;4940856;28;20042;-67
2022/03/14 05:40:12;;;;;;;24.52;17.27;;;7.60;56.50;;;5.71;56.05;96667.78;4968802;28;20088;-67
2022/03/14 05:42:38;;;;;;;27.20;16.77;;;7.60;56.60;;;5.74;56.36;96671.88;4960675;28;20046;-69
2022/03/14 05:45:04;;;;;;;29.20;17.95;;;7.60;57.10;;;5.77;56.53;96687.25;4949552;28;20050;-69
2022/03/14 05:47:30;;;;;;;33.28;21.60;;;7.60;57.30;;;5.81;56.41;96692.03;4975288;28;20054;-70
2022/03/14 05:49:56;;;;;;;35.30;24.13;;;7.70;58.00;;;5.85;57.24;96698.59;4953081;28;20086;-73
2022/03/14 05:52:21;;;;;;;32.65;20.35;;;7.70;58.10;;;5.91;57.47;96697.25;4969606;28;20511;-74
2022/03/14 05:54:48;;;;;;;33.92;23.67;;;7.80;58.10;;;5.97;57.74;96699.28;4961309;28;20102;-73
2022/03/14 05:57:14;;;;;;;28.80;18.98;;;7.80;58.30;;;6.01;57.15;96702.41;4965407;28;20139;-72
2022/03/14 05:59:39;;;;;;;25.02;18.23;;;7.90;58.30;;;6.07;57.58;96720.91;4969215;28;20452;-70
2022/03/14 06:02:05;;;;;;;27.50;17.75;;;7.90;58.10;;;6.12;57.65;96725.72;4969565;28;20031;-67
2022/03/14 06:04:31;;;;;;;23.02;16.88;;;8.00;58.00;;;6.18;57.65;96729.53;4967733;28;20043;-68
2022/03/14 06:06:57;;;;;;;22.85;16.63;;;8.10;57.90;;;6.23;58.05;96735.16;4972587;28;20073;-69
2022/03/14 06:09:25;;;;;;;23.52;16.73;;;8.10;57.90;;;6.28;57.87;96743.34;4981837;28;20063;-73
2022/03/14 06:11:51;;;;;;;24.98;16.38;;;8.20;58.10;;;6.33;58.97;96746.34;4967221;28;20039;-74
2022/03/14 06:14:17;;;;;;;27.17;17.60;;;8.20;58.30;;;6.36;58.27;96748.69;4965457;28;20042;-68
2022/03/14 06:16:43;;;;;;;21.13;16.83;;;8.20;58.30;;;6.43;58.53;96754.97;4948663;28;20039;-67
2022/03/14 06:19:09;;;;;;;21.60;15.75;;;8.30;58.30;;;6.48;58.73;96760.56;4962357;28;20082;-67
2022/03/14 06:21:35;;;;;;;21.85;16.83;;;8.40;58.10;;;6.52;58.52;96759.28;4982142;28;20023;-67
2022/03/14 06:24:04;;;;;;;28.02;16.88;;;8.40;58.40;;;6.56;59.76;96763.25;4966732;28;20035;-66
2022/03/14 06:26:30;;;;;;;21.85;16.02;;;8.40;58.80;;;6.57;59.63;96767.53;4961610;28;20031;-65
2022/03/14 06:28:56;;;;;;;19.48;15.88;;;8.40;59.20;;;6.62;59.40;96769.72;4964187;28;20480;-68
2022/03/14 06:31:22;;;;;;;22.88;14.77;;;8.40;59.30;;;6.65;59.39;96762.38;4982250;28;20045;-69
2022/03/14 06:33:49;;;;;;;19.88;15.13;;;8.50;59.40;;;6.69;60.42;96774.19;4962707;28;20643;-66
2022/03/14 06:36:15;;;;;;;25.02;15.48;;;8.50;59.30;;;6.74;59.84;96773.72;4958112;28;20039;-68
2022/03/14 06:38:40;;;;;;;21.67;14.82;;;8.60;59.40;;;6.76;60.50;96782.25;4964423;28;20118;-70
2022/03/14 06:41:07;;;;;;;20.70;15.88;;;8.60;59.70;;;6.81;60.72;96789.69;4957728;28;20035;-67
2022/03/14 06:43:35;;;;;;;21.77;15.70;;;8.60;59.50;;;6.83;59.93;96790.34;4959674;28;20146;-65
2022/03/14 06:46:02;;;;;;;19.75;14.88;;;8.70;59.30;;;6.90;60.25;96794.00;4968257;28;20066;-67
2022/03/14 06:48:28;;;;;;;17.83;14.30;;;8.80;59.30;;;6.97;60.66;96800.28;4975283;28;20057;-64
2022/03/14 06:50:53;;;;;;;21.83;15.35;;;8.90;59.30;;;7.02;61.11;96806.72;4964995;28;20027;-67
2022/03/14 06:53:19;;;;;;;20.40;15.32;;;9.00;59.80;;;7.11;61.35;96801.56;4963369;28;20489;-64
2022/03/14 06:55:45;;;;;;;18.48;12.57;;;9.10;59.90;;;7.19;60.82;96802.44;4956766;28;20038;-66
2022/03/14 06:58:11;;;;;;;16.60;12.20;;;9.20;59.60;;;7.30;61.27;96811.88;4973352;28;20030;-67
2022/03/14 07:00:36;;;;;;;20.35;11.15;;;9.40;59.40;;;7.40;61.18;96811.75;4974553;28;20113;-66
2022/03/14 07:03:02;;;;;;;14.90;10.63;;;9.60;59.00;;;7.53;61.62;96804.34;4964883;28;20054;-65
2022/03/14 07:05:28;;;;;;;13.30;10.05;;;9.90;58.70;;;7.72;62.02;96805.97;4964946;28;20078;-65
2022/03/14 07:07:54;;;;;;;14.68;10.20;;;10.20;57.80;;;7.94;61.60;96801.03;4957809;28;20147;-67
2022/03/14 07:10:20;;;;;;;13.18;10.07;;;10.60;56.90;;;8.18;61.65;96810.00;4978196;28;20050;-64
2022/03/14 07:12:46;;;;;;;11.35;9.50;;;10.80;56.50;;;8.36;61.40;96807.28;4966979;28;20027;-65
2022/03/14 07:15:25;;;;;;;9.60;8.52;;;10.90;56.30;;;8.48;61.65;96804.25;4936924;28;20134;-64
2022/03/14 07:17:51;;;;;;;9.73;7.97;;;10.90;56.10;;;8.61;60.86;96821.34;4979379;28;20039;-64
2022/03/14 07:20:20;;;;;;;10.27;7.25;;;10.90;56.40;;;8.71;60.79;96816.78;4965929;28;20399;-67
2022/03/14 07:22:56;;;;;;;8.70;6.80;;;11.00;56.20;;;8.86;60.74;96817.81;4971745;28;20043;-63
2022/03/14 07:25:31;;;;;;;8.73;6.13;;;11.50;55.20;;;9.08;61.82;96829.50;4954817;28;20129;-65
2022/03/14 07:28:05;;;;;;;7.95;6.13;;;11.80;54.40;;;9.28;61.12;96830.00;4971342;28;20066;-63
2022/03/14 07:30:31;;;;;;;6.68;5.63;;;12.20;53.50;;;9.52;59.84;96833.47;4959850;28;20038;-65
2022/03/14 07:32:57;;;;;;;8.25;6.40;;;12.70;52.10;;;9.77;59.54;96834.28;4966106;28;20066;-65
2022/03/14 07:35:23;;;;;;;9.07;5.72;;;13.30;51.00;;;10.06;59.27;96835.56;4952358;28;20035;-65
2022/03/14 07:37:50;;;;;;;7.60;5.38;;;13.90;49.40;;;10.31;58.82;96845.06;4970312;28;20114;-65
2022/03/14 07:40:16;;;;;;;5.43;3.97;;;13.80;49.40;;;10.59;58.70;96848.06;4973195;28;20126;-64
2022/03/14 07:42:43;;;;;;;3.90;3.05;;;14.40;47.90;;;10.85;58.33;96855.69;4968775;28;20035;-64
2022/03/14 07:45:11;;;;;;;6.35;3.38;;;14.80;47.00;;;11.13;57.07;96855.25;4962349;28;20404;-63
2022/03/14 07:47:36;;;;;;;3.75;3.03;;;15.20;45.90;;;11.40;56.75;96862.63;4962901;28;20031;-64
2022/03/14 07:50:05;;;;;;;8.05;4.22;;;15.40;45.70;;;11.61;55.41;96865.44;4965255;28;20121;-69
2022/03/14 07:52:31;;;;;;;12.18;4.57;;;15.30;45.40;;;11.81;55.46;96859.72;4964383;28;20124;-65
2022/03/14 07:54:57;;;;;;;9.23;3.20;;;15.40;44.90;;;12.00;54.82;96868.94;4977991;28;20047;-63
2022/03/14 07:57:23;;;;;;;3.13;2.10;;;15.80;44.20;;;12.13;54.01;96869.97;4962330;28;20138;-64
2022/03/14 07:59:49;;;;;;;4.47;2.28;;;15.40;44.50;;;12.12;53.71;96873.59;4964035;28;20062;-64
2022/03/14 08:02:14;;;;;;;2.90;2.00;;;14.90;45.70;;;12.08;53.43;96874.97;4965625;28;20030;-67
2022/03/14 08:04:40;;;;;;;2.95;1.75;;;14.60;46.20;;;12.05;53.11;96883.22;4999517;28;20042;-66
2022/03/14 08:07:06;;;;;;;3.45;1.60;;;14.70;46.20;;;12.06;52.60;96882.22;4987376;28;20035;-65
2022/03/14 08:09:32;;;;;;;3.58;1.55;;;14.70;45.60;;;12.04;52.62;96881.59;4945074;28;20034;-64
2022/03/14 08:12:04;;;;;;;2.38;1.73;;;14.60;45.70;;;12.03;52.46;96879.97;4960140;28;20023;-64
2022/03/14 08:14:29;;;;;;;1.70;1.27;;;14.50;46.00;;;12.09;52.22;96883.69;4959263;28;20046;-64
2022/03/14 08:16:55;;;;;;;1.80;1.30;;;15.40;44.40;;;12.26;52.15;96887.81;4969318;28;20039;-65
2022/03/14 08:19:21;;;;;;;2.33;1.35;;;15.80;43.30;;;12.34;51.14;96889.53;4953044;28;20038;-64
2022/03/14 08:21:47;;;;;;;1.27;1.00;;;15.10;44.10;;;12.41;51.10;96893.09;4984480;28;20058;-65
2022/03/14 08:24:14;;;;;;;1.15;0.93;;;15.10;44.60;;;12.51;50.91;96891.84;4970528;28;20041;-64
2022/03/14 08:26:42;;;;;;;1.95;1.15;;;15.20;44.00;;;12.72;50.24;96891.13;4970294;28;20066;-63
2022/03/14 08:29:08;;;;;;;2.25;1.42;;;16.30;41.90;;;13.04;49.71;96900.44;4955137;28;20508;-65
2022/03/14 08:31:34;;;;;;;1.70;1.17;;;17.30;40.10;;;13.48;50.15;96902.22;4957564;28;20034;-64
2022/03/14 08:34:00;;;;;;;2.95;1.17;;;18.10;38.20;;;13.81;49.43;96907.84;4957759;28;20027;-65
2022/03/14 08:36:27;;;;;;;1.33;0.95;;;17.50;39.30;;;14.12;48.06;96906.66;4951150;28;20062;-67
2022/03/14 08:38:53;;;;;;;1.27;0.82;;;18.50;37.80;;;14.45;46.90;96907.75;4956373;28;20352;-66
2022/03/14 08:41:18;;;;;;;2.00;1.10;;;18.50;37.00;;;14.65;47.20;96906.06;4936058;28;20043;-65
2022/03/14 08:43:44;;;;;;;1.50;1.05;;;18.20;37.10;;;14.69;45.70;96917.88;4952140;28;20114;-64
2022/03/14 08:46:10;;;;;;;1.50;0.95;;;17.90;37.80;;;14.73;45.33;96922.81;4958332;28;20039;-65
2022/03/14 08:48:36;;;;;;;4.47;2.13;;;17.50;38.10;;;14.64;45.81;96917.66;4967301;28;20067;-68
2022/03/14 08:51:03;;;;;;;8.73;4.80;;;17.80;38.10;;;14.87;45.93;96921.88;4955756;28;20146;-65
2022/03/14 08:53:30;;;;;;;3.33;1.83;;;19.10;36.60;;;15.21;45.11;96927.16;4957926;28;20038;-70
2022/03/14 08:55:55;;;;;;;1.15;0.90;;;19.70;35.00;;;15.55;43.65;96922.75;4966276;28;20102;-70
2022/03/14 08:58:22;;;;;;;1.13;0.80;;;20.10;33.90;;;15.88;44.38;96918.41;4969556;28;20439;-65
2022/03/14 09:00:48;;;;;;;4.32;1.00;;;20.40;33.00;;;16.17;42.89;96921.69;4950907;28;20038;-66
2022/03/14 09:03:14;;;;;;;2.30;0.80;;;20.90;32.70;;;16.48;42.92;96921.88;4965617;28;20039;-64
2022/03/14 09:05:40;;;;;;;2.13;1.02;;;21.10;32.50;;;16.81;42.11;96927.19;4941906;28;20419;-65
2022/03/14 09:08:06;;;;;;;2.40;0.90;;;21.50;31.70;;;17.21;41.23;96918.28;4957913;28;20456;-65
2022/03/14 09:10:36;;;;;;;2.00;0.85;;;21.80;30.80;;;17.53;40.77;96919.97;4967713;28;20462;-65
2022/03/14 09:13:05;;;;;;;1.40;0.82;;;22.00;30.50;;;17.90;40.42;96920.19;4970410;28;20035;-66
2022/03/14 09:15:30;;;;;;;1.00;0.70;;;22.60;30.30;;;18.22;39.23;96924.47;4953433;28;20066;-66
2022/03/14 09:17:59;;;;;;;1.48;0.93;;;22.40;29.50;;;18.26;38.71;96930.16;4942939;29;20031;-69
2022/03/14 09:20:26;;;;;;;1.08;0.70;;;22.10;30.10;;;18.46;38.10;96922.00;4956282;28;20049;-68
2022/03/14 09:22:51;;;;;;;1.02;0.50;;;22.30;29.30;;;18.78;38.08;96917.44;4958596;28;20134;-69
2022/03/14 09:25:18;;;;;;;2.13;0.85;;;23.20;28.20;;;19.09;37.24;96927.97;4967785;28;20030;-67
2022/03/14 09:27:44;;;;;;;0.77;0.60;;;23.20;27.40;;;19.21;35.52;96936.03;4958903;28;20031;-67
2022/03/14 09:30:11;;;;;;;3.45;0.60;;;22.70;28.00;;;19.30;35.16;96932.06;4969057;28;20069;-68
2022/03/14 09:32:37;;;;;;;0.98;0.60;;;22.60;28.40;;;19.45;35.87;96931.66;4971760;28;20041;-67
2022/03/14 09:35:04;;;;;;;4.53;0.80;;;23.10;27.70;;;19.66;35.06;96933.88;4953842;28;20031;-66
2022/03/14 09:37:30;;;;;;;0.70;0.70;;;23.40;27.40;;;19.89;33.71;96933.97;4970223;28;20073;-67
2022/03/14 09:39:56;;;;;;;0.90;0.45;;;23.60;26.50;;;19.99;33.96;96938.78;4935198;29;20035;-66
2022/03/14 09:42:22;;;;;;;0.88;0.50;;;23.60;26.80;;;20.22;33.91;96938.00;4969672;28;20549;-67
2022/03/14 09:44:53;;;;;;;1.35;0.50;;;24.40;26.00;;;20.45;32.83;96943.44;4953187;28;20046;-67
2022/03/14 09:47:24;;;;;;;4.47;0.40;;;25.00;25.30;;;20.67;31.97;96941.00;4962261;28;20549;-67
2022/03/14 09:49:54;;;;;;;3.45;0.43;;;25.00;24.80;;;20.63;32.72;96939.03;4965158;28;20452;-66
2022/03/14 09:52:20;;;;;;;0.60;0.40;;;25.40;24.60;;;20.92;32.71;96939.94;4948366;28;20041;-68
2022/03/14 09:54:46;;;;;;;1.67;0.40;;;26.20;24.00;;;21.24;32.51;96938.53;4921006;28;20066;-67
2022/03/14 09:57:12;;;;;;;0.52;0.35;;;27.10;22.60;;;21.29;31.78;96932.50;4953017;28;20125;-68
2022/03/14 09:59:37;;;;;;;2.42;0.60;;;26.50;22.60;;;21.45;31.19;96933.59;4952765;28;20105;-66
2022/03/14 10:02:04;;;;;;;0.88;0.68;;;27.40;22.00;;;21.82;32.09;96937.56;4968989;28;20074;-66
2022/03/14 10:04:30;;;;;;;0.80;0.30;;;28.50;20.70;;;22.17;30.74;96939.25;4968308;28;20042;-66
2022/03/14 10:06:55;;;;;;;1.20;0.47;;;28.40;20.30;;;22.55;30.53;96942.06;4965756;28;20143;-66
2022/03/14 10:09:21;;;;;;;2.55;0.47;;;29.10;19.70;;;23.01;30.80;96945.44;4985293;28;20165;-65
2022/03/14 10:11:47;;;;;;;0.20;0.20;;;30.20;18.70;;;23.42;30.33;96940.63;4966373;28;20406;-65
2022/03/14 10:14:17;;;;;;;0.82;0.55;;;28.80;19.80;;;23.66;29.01;96942.00;4972433;28;20035;-66
2022/03/14 10:16:44;;;;;;;2.17;1.65;;;29.80;18.60;;;23.30;29.43;96956.03;4971389;28;20447;-67